createdAt,value
2022-12-18T00:00:16.150Z,22.50
2022-12-18T00:02:45.533Z,21.83
2022-12-18T00:05:13.598Z,23.53
2022-12-18T00:07:41.557Z,19.87
2022-12-18T00:10:10.273Z,20.00
2022-12-18T00:12:38.337Z,20.63
2022-12-18T00:15:56.959Z,20.57
2022-12-18T00:18:27.163Z,19.63
2022-12-18T00:21:20.423Z,23.60
2022-12-18T00:23:49.641Z,20.97
2022-12-18T00:26:20.786Z,20.40
2022-12-18T00:28:51.596Z,20.70
2022-12-18T00:31:21.768Z,20.90
2022-12-18T00:33:54.161Z,22.10
2022-12-18T00:36:25.390Z,22.87
2022-12-18T00:38:55.760Z,21.70
2022-12-18T00:41:42.223Z,20.77
2022-12-18T00:44:12.285Z,22.67
2022-12-18T00:46:41.599Z,21.77
2022-12-18T00:49:11.877Z,21.83
2022-12-18T00:51:39.983Z,20.65
2022-12-18T00:54:08.063Z,20.73
2022-12-18T00:56:48.035Z,18.97
2022-12-18T00:59:17.876Z,19.35
2022-12-18T01:01:46.502Z,18.87
2022-12-18T01:04:16.672Z,21.77
2022-12-18T01:06:47.051Z,21.00
2022-12-18T01:09:15.150Z,21.63
2022-12-18T01:11:43.225Z,20.00
2022-12-18T01:14:12.600Z,20.73
2022-12-18T01:16:40.817Z,19.57
2022-12-18T01:19:09.144Z,19.43
2022-12-18T01:21:38.524Z,20.83
2022-12-18T01:24:07.290Z,21.00
2022-12-18T01:26:35.368Z,18.03
2022-12-18T01:29:03.459Z,18.73
2022-12-18T01:31:34.137Z,18.90
2022-12-18T01:34:05.258Z,19.23
2022-12-18T01:36:34.671Z,18.67
2022-12-18T01:39:06.288Z,19.60
2022-12-18T01:41:49.160Z,20.67
2022-12-18T01:44:54.702Z,20.43
2022-12-18T01:47:26.239Z,18.97
2022-12-18T01:49:55.342Z,18.23
2022-12-18T01:52:24.247Z,19.23
2022-12-18T01:54:55.158Z,19.67
2022-12-18T01:59:55.559Z,17.63
2022-12-18T02:02:24.227Z,19.80
2022-12-18T02:04:53.769Z,18.90
2022-12-18T02:07:33.393Z,19.33
2022-12-18T02:10:08.859Z,19.30
2022-12-18T02:12:45.120Z,20.70
2022-12-18T02:15:18.587Z,19.37
2022-12-18T02:17:54.101Z,20.70
2022-12-18T02:20:26.773Z,18.50
2022-12-18T02:23:06.419Z,18.93
2022-12-18T02:25:55.319Z,19.57
2022-12-18T02:28:27.931Z,16.57
2022-12-18T02:31:01.715Z,19.13
2022-12-18T02:33:32.703Z,18.80
2022-12-18T02:36:03.679Z,16.63
2022-12-18T02:38:35.904Z,17.57
2022-12-18T02:41:13.646Z,18.40
2022-12-18T02:43:42.582Z,18.33
2022-12-18T02:46:32.447Z,18.33
2022-12-18T02:49:13.558Z,19.50
2022-12-18T02:51:50.960Z,17.23
2022-12-18T02:54:28.972Z,19.80
2022-12-18T02:57:02.809Z,17.13
2022-12-18T02:59:40.472Z,18.10
2022-12-18T03:02:19.418Z,17.40
2022-12-18T03:04:53.527Z,18.87
2022-12-18T03:07:28.058Z,17.63
2022-12-18T03:09:58.673Z,16.33
2022-12-18T03:12:34.530Z,16.20
2022-12-18T03:15:06.756Z,17.93
2022-12-18T03:17:35.953Z,16.67
2022-12-18T03:20:09.517Z,16.17
2022-12-18T03:22:40.411Z,16.57
2022-12-18T03:25:11.995Z,16.60
2022-12-18T03:27:50.051Z,17.83
2022-12-18T03:30:19.878Z,15.43
2022-12-18T03:32:55.539Z,14.10
2022-12-18T03:35:30.770Z,15.60
2022-12-18T03:37:59.505Z,17.23
2022-12-18T03:40:37.389Z,14.70
2022-12-18T03:43:11.967Z,14.43
2022-12-18T03:45:49.910Z,15.23
2022-12-18T03:48:24.663Z,14.20
2022-12-18T03:50:59.419Z,13.70
2022-12-18T03:53:35.309Z,11.77
2022-12-18T03:56:06.069Z,13.67
2022-12-18T03:58:42.268Z,13.30
2022-12-18T04:01:26.614Z,13.20
2022-12-18T04:03:57.158Z,12.73
2022-12-18T04:06:26.384Z,14.40
2022-12-18T04:08:55.092Z,13.77
2022-12-18T04:11:26.302Z,13.57
2022-12-18T04:13:59.829Z,13.07
2022-12-18T04:16:28.317Z,14.90
2022-12-18T04:19:00.350Z,14.50
2022-12-18T04:21:31.841Z,12.50
2022-12-18T04:23:59.873Z,13.73
2022-12-18T04:26:29.759Z,14.97
2022-12-18T04:29:20.183Z,12.20
2022-12-18T04:31:48.900Z,14.40
2022-12-18T04:34:17.877Z,12.43
2022-12-18T04:36:51.805Z,15.00
2022-12-18T04:39:20.226Z,14.37
2022-12-18T04:41:50.717Z,12.50
2022-12-18T04:44:20.611Z,13.47
2022-12-18T04:46:48.611Z,13.40
2022-12-18T04:49:42.353Z,13.23
2022-12-18T04:52:10.437Z,13.90
2022-12-18T04:54:38.435Z,13.17
2022-12-18T04:57:06.386Z,15.10
2022-12-18T04:59:35.771Z,13.67
2022-12-18T05:02:04.035Z,12.83
2022-12-18T05:04:32.272Z,12.83
2022-12-18T05:07:00.236Z,14.30
2022-12-18T05:09:28.198Z,13.70
2022-12-18T05:11:56.230Z,13.43
2022-12-18T05:14:24.230Z,13.53
2022-12-18T05:16:57.923Z,14.10
2022-12-18T05:19:28.577Z,12.50
2022-12-18T05:22:21.290Z,13.80
2022-12-18T05:24:49.386Z,14.93
2022-12-18T05:27:17.435Z,13.47
2022-12-18T05:29:45.413Z,13.47
2022-12-18T05:32:14.709Z,14.33
2022-12-18T05:34:42.648Z,13.90
2022-12-18T05:37:10.607Z,13.87
2022-12-18T05:39:38.610Z,13.73
2022-12-18T05:42:06.652Z,13.90
2022-12-18T05:44:35.004Z,13.20
2022-12-18T05:47:03.067Z,13.70
2022-12-18T05:49:32.555Z,14.13
2022-12-18T05:52:00.492Z,14.13
2022-12-18T05:54:29.264Z,12.90
2022-12-18T05:56:57.255Z,14.23
2022-12-18T05:59:25.528Z,16.60
2022-12-18T06:01:53.691Z,15.10
2022-12-18T06:04:22.009Z,14.13
2022-12-18T06:06:51.339Z,15.00
2022-12-18T06:09:19.301Z,14.87
2022-12-18T06:11:47.243Z,15.93
2022-12-18T06:14:18.216Z,14.00
2022-12-18T06:16:46.367Z,16.50
2022-12-18T06:19:17.343Z,15.47
2022-12-18T06:21:45.563Z,15.90
2022-12-18T06:24:14.975Z,15.23
2022-12-18T06:26:42.928Z,16.43
2022-12-18T06:29:11.055Z,16.03
2022-12-18T06:31:39.060Z,13.57
2022-12-18T06:34:07.212Z,14.87
2022-12-18T06:36:35.190Z,15.53
2022-12-18T06:39:30.511Z,15.93
2022-12-18T06:41:58.458Z,14.13
2022-12-18T06:44:26.425Z,16.23
2022-12-18T06:46:54.362Z,14.87
2022-12-18T06:49:26.115Z,13.40
2022-12-18T06:51:56.890Z,13.47
2022-12-18T06:54:24.862Z,14.20
2022-12-18T06:56:54.481Z,15.20
2022-12-18T06:59:22.438Z,15.27
2022-12-18T07:01:50.649Z,15.93
2022-12-18T07:04:18.885Z,13.20
2022-12-18T07:06:46.914Z,14.10
2022-12-18T07:09:14.862Z,13.57
2022-12-18T07:11:42.821Z,14.93
2022-12-18T07:14:12.196Z,14.23
2022-12-18T07:16:40.222Z,14.17
2022-12-18T07:19:08.251Z,14.63
2022-12-18T07:21:36.215Z,14.10
2022-12-18T07:24:04.377Z,14.63
2022-12-18T07:26:33.397Z,14.57
2022-12-18T07:29:01.850Z,13.63
2022-12-18T07:31:31.311Z,15.37
2022-12-18T07:33:59.360Z,14.53
2022-12-18T07:36:27.340Z,13.43
2022-12-18T07:38:55.439Z,14.63
2022-12-18T07:41:23.536Z,14.90
2022-12-18T07:43:51.518Z,14.93
2022-12-18T07:46:19.743Z,14.80
2022-12-18T07:48:50.310Z,13.77
2022-12-18T07:51:18.785Z,14.13
2022-12-18T07:53:49.314Z,13.20
2022-12-18T07:56:29.583Z,13.37
2022-12-18T07:58:59.371Z,12.07
2022-12-18T08:01:27.594Z,13.23
2022-12-18T08:03:57.148Z,14.73
2022-12-18T08:06:25.371Z,12.50
2022-12-18T08:08:54.737Z,12.17
2022-12-18T08:11:23.756Z,14.03
2022-12-18T08:13:52.154Z,13.13
2022-12-18T08:16:20.912Z,15.17
2022-12-18T08:19:15.968Z,11.87
2022-12-18T08:21:48.100Z,13.70
2022-12-18T08:24:16.067Z,14.13
2022-12-18T08:27:00.881Z,16.63
2022-12-18T08:29:32.899Z,14.60
2022-12-18T08:32:00.962Z,14.10
2022-12-18T08:34:33.295Z,15.43
2022-12-18T08:37:01.318Z,14.90
2022-12-18T08:39:29.325Z,15.87
2022-12-18T08:42:14.856Z,15.63
2022-12-18T08:44:43.990Z,14.77
2022-12-18T08:47:11.989Z,16.23
2022-12-18T08:49:41.521Z,16.70
2022-12-18T08:52:09.912Z,16.40
2022-12-18T08:54:37.869Z,16.67
2022-12-18T08:57:05.837Z,16.63
2022-12-18T08:59:33.771Z,15.23
2022-12-18T09:02:01.944Z,16.60
2022-12-18T09:04:30.112Z,15.83
2022-12-18T09:07:24.822Z,16.87
2022-12-18T09:09:52.924Z,16.07
2022-12-18T09:12:21.156Z,15.47
2022-12-18T09:14:49.138Z,15.93
2022-12-18T09:17:17.275Z,16.90
2022-12-18T09:19:45.365Z,16.37
2022-12-18T09:22:13.537Z,15.97
2022-12-18T09:24:43.818Z,16.70
2022-12-18T09:27:11.809Z,16.00
2022-12-18T09:29:39.844Z,16.50
2022-12-18T09:32:07.887Z,16.30
2022-12-18T09:34:36.250Z,16.60
2022-12-18T09:37:04.324Z,15.97
2022-12-18T09:39:32.329Z,18.33
2022-12-18T09:42:01.805Z,16.67
2022-12-18T09:44:32.338Z,18.30
2022-12-18T09:47:12.635Z,17.70
2022-12-18T09:49:44.479Z,16.95
2022-12-18T09:52:17.898Z,18.50
2022-12-18T09:54:51.130Z,17.07
2022-12-18T09:57:23.856Z,17.50
2022-12-18T09:59:57.101Z,16.87
2022-12-18T10:02:27.132Z,17.20
2022-12-18T10:05:08.756Z,17.50
2022-12-18T10:07:50.034Z,16.57
2022-12-18T10:10:29.480Z,16.87
2022-12-18T10:13:05.489Z,15.83
2022-12-18T10:15:42.029Z,16.03
2022-12-18T10:18:28.057Z,18.67
2022-12-18T10:21:02.295Z,15.87
2022-12-18T10:23:44.932Z,17.03
2022-12-18T10:26:16.446Z,17.50
2022-12-18T10:28:47.017Z,17.53
2022-12-18T10:31:18.127Z,16.55
2022-12-18T10:36:14.295Z,16.37
2022-12-18T10:38:44.290Z,16.93
2022-12-18T10:41:27.877Z,17.85
2022-12-18T10:44:19.015Z,17.07
2022-12-18T10:46:47.978Z,16.50
2022-12-18T10:49:25.766Z,17.97
2022-12-18T10:52:06.494Z,16.30
2022-12-18T10:54:37.435Z,16.50
2022-12-18T10:57:36.851Z,18.92
2022-12-18T11:00:26.650Z,15.57
2022-12-18T11:02:56.728Z,17.43
2022-12-18T11:05:32.284Z,17.37
2022-12-18T11:08:01.200Z,16.47
2022-12-18T11:10:33.783Z,16.60
2022-12-18T11:13:13.824Z,15.43
2022-12-18T11:15:43.907Z,15.93
2022-12-18T11:18:21.034Z,15.43
2022-12-18T11:20:58.496Z,15.47
2022-12-18T11:23:28.664Z,15.50
2022-12-18T11:25:59.509Z,15.47
2022-12-18T11:28:30.935Z,16.75
2022-12-18T11:31:21.241Z,15.87
2022-12-18T11:34:26.872Z,14.40
2022-12-18T11:36:46.808Z,15.70
2022-12-18T11:39:20.305Z,13.82
2022-12-18T11:42:13.905Z,15.67
2022-12-18T11:44:50.236Z,15.87
2022-12-18T11:47:30.717Z,16.03
2022-12-18T11:50:02.769Z,15.80
2022-12-18T11:52:37.967Z,14.27
2022-12-18T11:55:13.924Z,16.07
2022-12-18T11:57:52.065Z,17.00
2022-12-18T12:00:21.648Z,16.87
2022-12-18T12:03:21.125Z,17.13
2022-12-18T12:05:59.649Z,16.90
2022-12-18T12:08:42.183Z,16.20
2022-12-18T12:11:19.611Z,17.97
2022-12-18T12:13:53.999Z,16.63
2022-12-18T12:16:27.293Z,16.27
2022-12-18T12:19:07.900Z,16.73
2022-12-18T12:21:42.582Z,14.55
2022-12-18T12:24:28.263Z,14.63
2022-12-18T12:27:03.178Z,16.00
2022-12-18T12:29:44.979Z,16.80
2022-12-18T12:32:27.330Z,15.20
2022-12-18T12:35:11.568Z,16.20
2022-12-18T12:37:49.652Z,16.60
2022-12-18T12:40:50.233Z,15.70
2022-12-18T12:43:22.396Z,14.53
2022-12-18T12:45:55.920Z,13.95
2022-12-18T12:48:35.884Z,14.50
2022-12-18T12:51:13.268Z,15.40
2022-12-18T12:53:43.196Z,14.03
2022-12-18T12:56:41.932Z,15.90
2022-12-18T12:59:18.185Z,14.70
2022-12-18T13:01:56.948Z,14.67
2022-12-18T13:04:33.413Z,14.37
2022-12-18T13:07:08.630Z,14.33
2022-12-18T13:10:17.252Z,14.37
2022-12-18T13:12:58.237Z,15.83
2022-12-18T13:15:32.729Z,14.60
2022-12-18T13:18:20.380Z,14.47
2022-12-18T13:20:55.348Z,12.17
2022-12-18T13:23:35.176Z,9.07
2022-12-18T13:26:33.534Z,15.97
2022-12-18T13:29:05.148Z,15.43
2022-12-18T13:32:10.176Z,11.87
2022-12-18T13:34:38.795Z,12.83
2022-12-18T13:37:44.594Z,13.03
2022-12-18T13:41:00.323Z,12.63
2022-12-18T13:43:44.618Z,13.77
2022-12-18T13:46:44.073Z,14.63
2022-12-18T13:49:24.992Z,14.27
2022-12-18T13:51:55.452Z,13.47
2022-12-18T13:54:29.994Z,14.02
2022-12-18T13:56:58.504Z,13.40
2022-12-18T13:59:34.833Z,11.47
2022-12-18T14:02:12.402Z,12.07
2022-12-18T14:04:40.761Z,11.27
2022-12-18T14:07:13.644Z,11.63
2022-12-18T14:09:46.305Z,11.27
2022-12-18T14:12:36.929Z,11.90
2022-12-18T14:15:13.470Z,11.17
2022-12-18T14:17:41.575Z,8.97
2022-12-18T14:20:15.377Z,7.47
2022-12-18T14:22:48.242Z,10.43
2022-12-18T14:25:19.464Z,10.23
2022-12-18T14:27:49.697Z,10.00
2022-12-18T14:30:39.121Z,10.82
2022-12-18T14:33:11.265Z,11.30
2022-12-18T14:35:40.968Z,10.63
2022-12-18T14:38:27.836Z,9.03
2022-12-18T14:40:57.908Z,9.50
2022-12-18T14:43:26.392Z,10.37
2022-12-18T14:45:56.396Z,9.87
2022-12-18T14:48:36.617Z,10.27
2022-12-18T14:51:07.922Z,11.70
2022-12-18T14:53:40.096Z,10.97
2022-12-18T14:56:19.390Z,10.33
2022-12-18T14:58:52.481Z,8.77
2022-12-18T15:01:28.458Z,10.00
2022-12-18T15:03:57.958Z,9.47
2022-12-18T15:06:35.511Z,8.97
2022-12-18T15:09:07.800Z,9.53
2022-12-18T15:11:45.832Z,10.23
2022-12-18T15:14:36.867Z,9.53
2022-12-18T15:17:16.576Z,10.60
2022-12-18T15:19:46.556Z,6.40
2022-12-18T15:22:23.861Z,9.13
2022-12-18T15:24:52.358Z,9.10
2022-12-18T15:27:26.965Z,8.10
2022-12-18T15:30:32.416Z,7.00
2022-12-18T15:33:25.724Z,8.73
2022-12-18T15:35:58.896Z,8.17
2022-12-18T15:38:28.828Z,6.83
2022-12-18T15:40:57.142Z,7.73
2022-12-18T15:43:34.996Z,8.77
2022-12-18T15:46:04.422Z,10.27
2022-12-18T15:48:35.534Z,9.23
2022-12-18T15:53:34.711Z,9.13
2022-12-18T15:56:20.400Z,7.27
2022-12-18T15:58:48.782Z,9.00
2022-12-18T16:01:17.864Z,7.17
2022-12-18T16:03:47.410Z,8.10
2022-12-18T16:06:15.507Z,8.33
2022-12-18T16:08:43.656Z,6.10
2022-12-18T16:11:38.754Z,6.00
2022-12-18T16:14:18.973Z,7.97
2022-12-18T16:16:47.698Z,7.23
2022-12-18T16:19:17.368Z,7.33
2022-12-18T16:21:46.094Z,5.70
2022-12-18T16:24:17.249Z,8.07
2022-12-18T16:29:13.130Z,6.77
2022-12-18T16:31:41.223Z,5.83
2022-12-18T16:34:13.549Z,6.27
2022-12-18T16:36:43.116Z,3.20
2022-12-18T16:39:11.361Z,5.97
2022-12-18T16:41:39.785Z,5.37
2022-12-18T16:44:09.445Z,4.93
2022-12-18T16:46:38.096Z,4.40
2022-12-18T16:49:07.856Z,4.83
2022-12-18T16:51:36.152Z,3.20
2022-12-18T16:54:09.728Z,4.80
2022-12-18T16:56:40.222Z,4.23
2022-12-18T16:59:10.122Z,5.53
2022-12-18T17:01:38.549Z,3.73
2022-12-18T17:04:11.044Z,4.13
2022-12-18T17:06:42.600Z,4.10
2022-12-18T17:09:15.660Z,4.77
2022-12-18T17:11:44.272Z,4.10
2022-12-18T17:14:15.453Z,4.57
2022-12-18T17:16:43.752Z,4.07
2022-12-18T17:19:16.787Z,4.53
2022-12-18T17:21:46.076Z,4.33
2022-12-18T17:24:15.710Z,4.13
2022-12-18T17:26:45.702Z,4.20
2022-12-18T17:29:17.900Z,3.60
2022-12-18T17:31:48.451Z,5.07
2022-12-18T17:34:16.850Z,4.67
2022-12-18T17:36:45.013Z,4.97
2022-12-18T17:39:19.765Z,4.67
2022-12-18T17:41:48.915Z,4.60
2022-12-18T17:44:17.906Z,3.43
2022-12-18T17:46:46.624Z,5.50
2022-12-18T17:49:15.327Z,3.73
2022-12-18T17:51:43.566Z,4.43
2022-12-18T17:54:12.627Z,4.00
2022-12-18T17:56:42.240Z,3.37
2022-12-18T17:59:11.050Z,3.45
2022-12-18T18:01:44.395Z,3.07
2022-12-18T18:04:38.510Z,4.30
2022-12-18T18:07:06.653Z,3.27
2022-12-18T18:09:34.859Z,4.10
2022-12-18T18:12:22.280Z,3.57
2022-12-18T18:14:50.721Z,3.90
2022-12-18T18:17:19.813Z,3.07
2022-12-18T18:19:49.788Z,2.27
2022-12-18T18:22:18.733Z,3.03
2022-12-18T18:24:47.170Z,3.67
2022-12-18T18:27:16.901Z,3.63
2022-12-18T18:29:45.441Z,3.67
2022-12-18T18:32:13.523Z,3.60
2022-12-18T18:34:41.855Z,3.60
2022-12-18T18:37:11.125Z,3.83
2022-12-18T18:39:39.426Z,3.67
2022-12-18T18:42:07.559Z,4.03
2022-12-18T18:44:37.023Z,3.63
2022-12-18T18:47:08.596Z,3.23
2022-12-18T18:49:37.875Z,2.50
2022-12-18T18:52:07.252Z,3.70
2022-12-18T18:54:36.460Z,3.37
2022-12-18T18:57:20.456Z,4.07
2022-12-18T18:59:50.619Z,3.53
2022-12-18T19:02:19.076Z,2.70
2022-12-18T19:04:48.067Z,3.00
2022-12-18T19:07:22.294Z,6.90
2022-12-18T19:10:05.249Z,4.80
2022-12-18T19:13:16.208Z,12.07
2022-12-18T19:15:45.958Z,4.53
2022-12-18T19:18:40.680Z,3.70
2022-12-18T19:21:09.472Z,4.90
2022-12-18T19:23:37.680Z,4.03
2022-12-18T19:26:28.462Z,3.80
2022-12-18T19:29:02.115Z,4.07
2022-12-18T19:31:35.561Z,4.03
2022-12-18T19:34:05.252Z,3.37
2022-12-18T19:36:34.991Z,3.37
2022-12-18T19:39:03.871Z,3.13
2022-12-18T19:41:32.937Z,2.30
2022-12-18T19:44:02.235Z,3.73
2022-12-18T19:46:40.330Z,2.87
2022-12-18T19:49:10.820Z,3.50
2022-12-18T19:51:39.537Z,3.30
2022-12-18T19:54:16.676Z,3.73
2022-12-18T19:56:46.506Z,4.73
2022-12-18T19:59:15.129Z,3.13
2022-12-18T20:01:44.613Z,3.87
2022-12-18T20:04:12.708Z,3.67
2022-12-18T20:06:49.214Z,4.00
2022-12-18T20:09:18.208Z,3.17
2022-12-18T20:11:47.632Z,3.00
2022-12-18T20:14:23.584Z,3.53
2022-12-18T20:16:53.751Z,4.37
2022-12-18T20:19:23.044Z,3.78
2022-12-18T20:21:51.274Z,4.00
2022-12-18T20:24:19.558Z,3.77
2022-12-18T20:26:47.690Z,2.90
2022-12-18T20:29:15.808Z,2.37
2022-12-18T20:31:44.008Z,3.57
2022-12-18T20:34:13.398Z,3.73
2022-12-18T20:36:41.960Z,2.57
2022-12-18T20:39:10.890Z,2.57
2022-12-18T20:41:40.682Z,3.63
2022-12-18T20:44:22.021Z,3.90
2022-12-18T20:46:52.751Z,3.93
2022-12-18T20:49:22.449Z,3.43
2022-12-18T20:51:56.173Z,5.10
2022-12-18T20:54:26.099Z,4.10
2022-12-18T20:56:54.219Z,3.00
2022-12-18T20:59:25.500Z,4.20
2022-12-18T21:01:53.953Z,3.73
2022-12-18T21:04:23.958Z,3.93
2022-12-18T21:07:00.716Z,3.40
2022-12-18T21:09:38.066Z,3.50
2022-12-18T21:12:21.928Z,3.43
2022-12-18T21:14:50.023Z,3.47
2022-12-18T21:17:18.413Z,2.87
2022-12-18T21:19:47.722Z,2.13
2022-12-18T21:22:16.828Z,2.92
2022-12-18T21:24:44.966Z,3.00
2022-12-18T21:27:14.219Z,2.93
2022-12-18T21:29:45.846Z,2.63
2022-12-18T21:32:14.853Z,2.13
2022-12-18T21:34:47.866Z,2.73
2022-12-18T21:37:17.714Z,2.77
2022-12-18T21:39:47.489Z,2.83
2022-12-18T21:42:35.017Z,1.87
2022-12-18T21:45:03.144Z,2.30
2022-12-18T21:47:31.202Z,2.20
2022-12-18T21:49:59.246Z,2.57
2022-12-18T21:52:32.372Z,3.03
2022-12-18T21:55:10.222Z,2.50
2022-12-18T21:57:39.629Z,2.20
2022-12-18T22:00:19.024Z,1.83
2022-12-18T22:03:05.659Z,1.90
2022-12-18T22:05:36.524Z,2.10
2022-12-18T22:08:06.947Z,2.13
2022-12-18T22:10:38.529Z,2.37
2022-12-18T22:13:07.125Z,2.03
2022-12-18T22:15:35.201Z,1.97
2022-12-18T22:18:03.437Z,2.00
2022-12-18T22:20:31.681Z,1.73
2022-12-18T22:23:01.084Z,1.97
2022-12-18T22:25:38.931Z,1.87
2022-12-18T22:28:25.155Z,1.73
2022-12-18T22:30:55.976Z,1.57
2022-12-18T22:33:28.688Z,1.30
2022-12-18T22:35:57.008Z,1.40
2022-12-18T22:38:24.927Z,1.40
2022-12-18T22:40:55.854Z,1.27
2022-12-18T22:45:51.826Z,1.27
2022-12-18T22:48:19.963Z,1.40
2022-12-18T22:50:48.111Z,1.50
2022-12-18T22:53:17.846Z,1.40
2022-12-18T22:55:46.081Z,1.30
2022-12-18T22:58:15.519Z,1.30
2022-12-18T23:00:43.523Z,1.83
2022-12-18T23:03:11.685Z,1.83
2022-12-18T23:05:39.800Z,1.47
2022-12-18T23:08:07.823Z,1.87
2022-12-18T23:10:39.424Z,1.55
2022-12-18T23:13:07.587Z,1.97
2022-12-18T23:15:42.437Z,1.80
2022-12-18T23:18:12.624Z,2.20
2022-12-18T23:20:40.771Z,2.33
2022-12-18T23:23:09.840Z,2.60
2022-12-18T23:25:37.983Z,2.53
2022-12-18T23:28:06.399Z,2.83
2022-12-18T23:30:34.543Z,2.10
2022-12-18T23:33:03.998Z,2.70
2022-12-18T23:35:32.232Z,2.43
2022-12-18T23:38:00.807Z,2.60
2022-12-18T23:40:32.953Z,2.30
2022-12-18T23:43:01.247Z,2.03
2022-12-18T23:45:29.851Z,1.97
2022-12-18T23:47:58.047Z,2.30
2022-12-18T23:50:29.278Z,2.33
2022-12-18T23:53:03.750Z,2.70
2022-12-18T23:56:00.699Z,1.93
2022-12-18T23:58:30.134Z,2.20
